Time;durP1;ratioP1;P1;durP2;ratioP2;P2;SDS_P1;SDS_P2;PMS_P1;PMS_P2;Temp;Humidity;BMP_temperature;BMP_pressure;BME280_temperature;BME280_humidity;BME280_pressure;Samples;Min_cycle;Max_cycle;Signal;HPM_P1;HPM_P2
2021/12/08 15:27:23;;;;;;;;;;;4.40;99.90;;;;;;5093227;27;19942;-87
2021/12/08 15:29:48;;;;;;;;;;;4.40;99.90;;;;;;5075784;28;19913;-87
2021/12/08 15:32:15;;;;;;;;;;;4.50;99.90;;;;;;5105509;28;19947;-87
2021/12/08 15:34:41;;;;;;;;;;;4.60;99.90;;;;;;5081066;28;19963;-87
2021/12/08 15:37:08;;;;;;;;;;;4.70;99.90;;;;;;5082424;28;19937;-87
2021/12/08 15:39:35;;;;;;;;;;;4.80;99.90;;;;;;5080314;28;19912;-87
2021/12/08 15:42:05;;;;;;;;;;;4.90;99.90;;;;;;5057683;28;19909;-88
2021/12/08 15:44:32;;;;;;;;;;;4.90;99.90;;;;;;5104568;28;20003;-87
2021/12/08 15:46:57;;;;;;;;;;;5.00;99.90;;;;;;5071147;28;19916;-87
2021/12/08 15:49:27;;;;;;;;;;;5.00;99.90;;;;;;5073691;28;20412;-87
2021/12/08 15:51:53;;;;;;;;;;;5.10;99.90;;;;;;5079358;28;19913;-87
2021/12/08 15:54:22;;;;;;;;;;;5.10;99.90;;;;;;5083343;28;19917;-87
2021/12/08 15:56:48;;;;;;;;;;;5.20;99.90;;;;;;5081736;28;19919;-88
2021/12/08 15:59:16;;;;;;;;;;;5.20;99.90;;;;;;5076712;28;19996;-88
2021/12/08 16:01:42;;;;;;;;;;;5.20;99.90;;;;;;5078751;28;19908;-88
2021/12/08 16:04:08;;;;;;;;;;;5.20;99.90;;;;;;5080141;28;19917;-88
2021/12/08 16:06:41;;;;;;;;;;;5.30;99.90;;;;;;5082694;28;19919;-88
2021/12/08 16:09:16;;;;;;;;;;;5.20;99.90;;;;;;5077948;28;19920;-87
2021/12/08 16:11:41;;;;;;;;;;;5.30;99.90;;;;;;5081209;28;19999;-88
2021/12/08 16:14:18;;;;;;;;;;;5.30;99.90;;;;;;5077417;28;19956;-88
2021/12/08 16:16:45;;;;;;;;;;;5.30;99.90;;;;;;5074606;28;20084;-87
2021/12/08 16:19:12;;;;;;;;;;;5.30;99.90;;;;;;5082795;28;19908;-88
2021/12/08 16:21:38;;;;;;;;;;;5.30;99.90;;;;;;5080979;28;19939;-87
2021/12/08 16:24:04;;;;;;;;;;;5.40;99.90;;;;;;5079356;28;19960;-87
2021/12/08 16:26:30;;;;;;;;;;;5.40;99.90;;;;;;5078177;28;19967;-87
2021/12/08 16:28:56;;;;;;;;;;;5.40;99.90;;;;;;5081352;28;20288;-87
2021/12/08 16:31:22;;;;;;;;;;;5.40;99.90;;;;;;5092625;28;20006;-87
2021/12/08 16:33:48;;;;;;;;;;;5.40;99.90;;;;;;5082349;28;19943;-87
2021/12/08 16:36:14;;;;;;;;;;;5.40;99.90;;;;;;5076534;28;19955;-86
2021/12/08 16:38:40;;;;;;;;;;;5.40;99.90;;;;;;5056888;28;19920;-88
2021/12/08 16:43:50;;;;;;;;;;;5.40;99.90;;;;;;5056458;28;19924;-87
2021/12/08 16:46:15;;;;;;;;;;;5.50;99.90;;;;;;5056153;28;20268;-89
2021/12/08 16:48:41;;;;;;;;;;;5.50;99.90;;;;;;5058715;28;19950;-87
2021/12/08 16:51:06;;;;;;;;;;;5.50;99.90;;;;;;5057419;28;19971;-88
2021/12/08 16:53:32;;;;;;;;;;;5.40;99.90;;;;;;5057893;28;20349;-88
2021/12/08 16:56:01;;;;;;;;;;;5.40;99.90;;;;;;5071538;28;19913;-88
2021/12/08 16:58:27;;;;;;;;;;;5.50;99.90;;;;;;5055084;28;19964;-89
2021/12/08 17:00:55;;;;;;;;;;;5.40;99.90;;;;;;5058694;28;19955;-88
2021/12/08 17:03:21;;;;;;;;;;;5.40;99.90;;;;;;5057296;28;19912;-88
2021/12/08 17:05:48;;;;;;;;;;;5.40;99.90;;;;;;5055806;28;19913;-87
2021/12/08 17:08:14;;;;;;;;;;;5.40;99.90;;;;;;5056418;28;20010;-87
2021/12/08 17:10:41;;;;;;;;;;;5.40;99.90;;;;;;5055877;28;19962;-87
2021/12/08 17:13:07;;;;;;;;;;;5.50;99.90;;;;;;5055031;28;19913;-88
2021/12/08 17:15:32;;;;;;;;;;;5.50;99.90;;;;;;5055942;28;19924;-87
2021/12/08 17:17:59;;;;;;;;;;;5.50;99.90;;;;;;5061179;28;20353;-88
2021/12/08 17:20:25;;;;;;;;;;;5.50;99.90;;;;;;5056831;28;19913;-87
2021/12/08 17:22:51;;;;;;;;;;;5.60;99.90;;;;;;5054613;28;19913;-88
2021/12/08 17:25:16;;;;;;;;;;;5.50;99.90;;;;;;5054390;28;21544;-88
2021/12/08 17:27:42;;;;;;;;;;;5.50;99.90;;;;;;5056666;28;19912;-88
2021/12/08 17:30:09;;;;;;;;;;;5.50;99.90;;;;;;5054794;28;19966;-88
2021/12/08 17:32:35;;;;;;;;;;;5.60;99.90;;;;;;5055836;28;19941;-89
2021/12/08 17:35:01;;;;;;;;;;;5.60;99.90;;;;;;5059920;28;19956;-89
2021/12/08 17:37:26;;;;;;;;;;;5.60;99.90;;;;;;5056514;28;19927;-89
2021/12/08 17:39:52;;;;;;;;;;;5.60;99.90;;;;;;5054828;28;19911;-87
2021/12/08 17:42:18;;;;;;;;;;;5.60;99.90;;;;;;5059667;28;20451;-88
2021/12/08 17:44:44;;;;;;;;;;;5.60;99.90;;;;;;5060716;28;20260;-89
2021/12/08 17:47:10;;;;;;;;;;;5.60;99.90;;;;;;5053512;28;19931;-88
2021/12/08 17:49:35;;;;;;;;;;;5.60;99.90;;;;;;5054512;28;19986;-88
2021/12/08 17:52:02;;;;;;;;;;;5.60;99.90;;;;;;5054363;28;19955;-88
2021/12/08 17:54:27;;;;;;;;;;;5.70;99.90;;;;;;5054697;28;19909;-89
2021/12/08 17:56:53;;;;;;;;;;;5.70;99.90;;;;;;5054830;28;20383;-88
2021/12/08 17:59:20;;;;;;;;;;;5.70;99.90;;;;;;5055632;28;19935;-87
2021/12/08 18:01:46;;;;;;;;;;;5.70;99.90;;;;;;5062268;28;19913;-88
2021/12/08 18:04:12;;;;;;;;;;;5.70;99.90;;;;;;5060767;28;19935;-88
2021/12/08 18:06:39;;;;;;;;;;;5.70;99.90;;;;;;5054717;28;19912;-89
2021/12/08 18:09:06;;;;;;;;;;;5.70;99.90;;;;;;5052880;28;19999;-88
2021/12/08 18:11:32;;;;;;;;;;;5.80;99.90;;;;;;5060275;28;20007;-88
2021/12/08 18:13:57;;;;;;;;;;;5.70;99.90;;;;;;5067058;28;19955;-88
2021/12/08 18:16:25;;;;;;;;;;;5.70;99.90;;;;;;5058648;28;19916;-88
2021/12/08 18:18:51;;;;;;;;;;;5.80;99.90;;;;;;5063148;28;20380;-88
2021/12/08 18:21:17;;;;;;;;;;;5.70;99.90;;;;;;5039924;28;19909;-88
2021/12/08 18:23:43;;;;;;;;;;;5.80;99.90;;;;;;5054827;28;19909;-88
2021/12/08 18:26:09;;;;;;;;;;;5.80;99.90;;;;;;5060920;28;20377;-88
2021/12/08 18:28:34;;;;;;;;;;;5.80;99.90;;;;;;5073855;28;20360;-88
2021/12/08 18:31:00;;;;;;;;;;;5.80;99.90;;;;;;5082964;28;20016;-88
2021/12/08 18:33:27;;;;;;;;;;;5.80;99.90;;;;;;5064590;28;19912;-89
2021/12/08 18:38:38;;;;;;;;;;;5.80;99.90;;;;;;5053794;28;19913;-86
2021/12/08 18:41:07;;;;;;;;;;;5.80;99.90;;;;;;5049013;28;20008;-86
2021/12/08 18:43:35;;;;;;;;;;;5.80;99.90;;;;;;5060487;28;19916;-88
2021/12/08 18:46:03;;;;;;;;;;;5.80;99.90;;;;;;5057624;28;20328;-89
2021/12/08 18:48:30;;;;;;;;;;;5.80;99.90;;;;;;5054978;28;19955;-87
2021/12/08 18:50:56;;;;;;;;;;;5.80;99.90;;;;;;5053472;28;19916;-89
2021/12/08 18:53:21;;;;;;;;;;;5.80;99.90;;;;;;5053504;28;19927;-89
2021/12/08 18:55:47;;;;;;;;;;;5.80;99.90;;;;;;5062708;28;20003;-86
2021/12/08 18:58:14;;;;;;;;;;;5.80;99.90;;;;;;5067934;28;19913;-87
2021/12/08 19:00:40;;;;;;;;;;;5.90;99.90;;;;;;5059965;28;20180;-90
2021/12/08 19:03:06;;;;;;;;;;;5.90;99.90;;;;;;5066797;28;19920;-88
2021/12/08 19:05:33;;;;;;;;;;;5.90;99.90;;;;;;5071022;28;19919;-87
2021/12/08 19:07:59;;;;;;;;;;;5.90;99.90;;;;;;5054932;28;19913;-89
2021/12/08 19:10:26;;;;;;;;;;;5.90;99.90;;;;;;5055054;28;19913;-88
2021/12/08 19:12:52;;;;;;;;;;;5.90;99.90;;;;;;5054944;28;19913;-87
2021/12/08 19:15:18;;;;;;;;;;;5.90;99.90;;;;;;5063877;28;20375;-88
2021/12/08 19:17:44;;;;;;;;;;;5.90;99.90;;;;;;5060913;28;19924;-88
2021/12/08 19:20:11;;;;;;;;;;;5.90;99.90;;;;;;5058301;28;19912;-88
2021/12/08 19:22:37;;;;;;;;;;;5.90;99.90;;;;;;5054217;28;19988;-87
2021/12/08 19:25:04;;;;;;;;;;;5.90;99.90;;;;;;5053192;28;19982;-87
2021/12/08 19:27:30;;;;;;;;;;;5.90;99.90;;;;;;5056917;28;19917;-88
2021/12/08 19:29:56;;;;;;;;;;;6.00;99.90;;;;;;5057124;28;19919;-88
2021/12/08 19:32:23;;;;;;;;;;;6.00;99.90;;;;;;5055026;28;20039;-92
2021/12/08 19:34:49;;;;;;;;;;;6.00;99.90;;;;;;5060076;28;19918;-87
2021/12/08 19:37:16;;;;;;;;;;;6.00;99.90;;;;;;5051164;28;20007;-88
2021/12/08 19:39:42;;;;;;;;;;;6.00;99.90;;;;;;5056478;28;19913;-88
2021/12/08 19:42:07;;;;;;;;;;;6.00;99.90;;;;;;5053040;28;20412;-88
2021/12/08 19:44:33;;;;;;;;;;;6.00;99.90;;;;;;5053618;28;19913;-88
2021/12/08 19:46:59;;;;;;;;;;;6.10;99.90;;;;;;5053305;28;19935;-87
2021/12/08 19:49:24;;;;;;;;;;;6.10;99.90;;;;;;5053146;28;20399;-91
2021/12/08 19:51:53;;;;;;;;;;;6.10;99.90;;;;;;5051871;28;19912;-92
2021/12/08 19:54:20;;;;;;;;;;;6.10;99.90;;;;;;5053310;28;20011;-92
2021/12/08 19:56:46;;;;;;;;;;;6.10;99.90;;;;;;5053589;28;19913;-91
2021/12/08 19:59:13;;;;;;;;;;;6.10;99.90;;;;;;5054282;28;19974;-92
2021/12/08 20:01:40;;;;;;;;;;;6.10;99.90;;;;;;5052987;28;19916;-92
2021/12/08 20:04:06;;;;;;;;;;;6.10;99.90;;;;;;5053669;28;19909;-92
2021/12/08 20:06:31;;;;;;;;;;;6.10;99.90;;;;;;5053160;28;19932;-92
2021/12/08 20:08:57;;;;;;;;;;;6.10;99.90;;;;;;5052780;28;20430;-92
